sensor_id;sensor_type;location;lat;lon;timestamp;P1;durP1;ratioP1;P2;durP2;ratioP2
5060;SDS011;2549;52.128;21.068;2022-09-03T00:01:17;6.70;;;3.90;;
5060;SDS011;2549;52.128;21.068;2022-09-03T00:03:51;4.60;;;2.70;;
5060;SDS011;2549;52.128;21.068;2022-09-03T00:06:30;4.80;;;2.93;;
5060;SDS011;2549;52.128;21.068;2022-09-03T00:09:04;8.23;;;3.03;;
5060;SDS011;2549;52.128;21.068;2022-09-03T00:11:36;8.70;;;3.33;;
5060;SDS011;2549;52.128;21.068;2022-09-03T00:14:22;6.40;;;2.40;;
5060;SDS011;2549;52.128;21.068;2022-09-03T00:16:54;7.80;;;2.90;;
5060;SDS011;2549;52.128;21.068;2022-09-03T00:19:30;4.20;;;2.87;;
5060;SDS011;2549;52.128;21.068;2022-09-03T00:22:06;4.20;;;2.97;;
5060;SDS011;2549;52.128;21.068;2022-09-03T00:24:39;10.20;;;3.50;;
5060;SDS011;2549;52.128;21.068;2022-09-03T00:27:12;8.33;;;3.27;;
5060;SDS011;2549;52.128;21.068;2022-09-03T00:29:47;8.23;;;3.20;;
5060;SDS011;2549;52.128;21.068;2022-09-03T00:32:19;6.73;;;3.03;;
5060;SDS011;2549;52.128;21.068;2022-09-03T00:34:53;5.93;;;3.07;;
5060;SDS011;2549;52.128;21.068;2022-09-03T00:37:26;7.57;;;2.70;;
5060;SDS011;2549;52.128;21.068;2022-09-03T00:39:58;4.03;;;3.43;;
5060;SDS011;2549;52.128;21.068;2022-09-03T00:45:21;4.50;;;2.67;;
5060;SDS011;2549;52.128;21.068;2022-09-03T00:56:35;7.63;;;3.17;;
5060;SDS011;2549;52.128;21.068;2022-09-03T01:04:44;7.93;;;3.40;;
5060;SDS011;2549;52.128;21.068;2022-09-03T01:07:43;4.60;;;2.57;;
5060;SDS011;2549;52.128;21.068;2022-09-03T01:10:29;5.80;;;2.60;;
5060;SDS011;2549;52.128;21.068;2022-09-03T01:21:32;6.90;;;3.27;;
5060;SDS011;2549;52.128;21.068;2022-09-03T01:43:09;11.50;;;3.27;;
5060;SDS011;2549;52.128;21.068;2022-09-03T01:46:23;7.47;;;3.07;;
5060;SDS011;2549;52.128;21.068;2022-09-03T01:51:29;5.40;;;2.90;;
5060;SDS011;2549;52.128;21.068;2022-09-03T01:59:30;9.40;;;3.83;;
5060;SDS011;2549;52.128;21.068;2022-09-03T02:02:44;7.20;;;3.30;;
5060;SDS011;2549;52.128;21.068;2022-09-03T02:05:18;6.87;;;3.37;;
5060;SDS011;2549;52.128;21.068;2022-09-03T02:07:47;5.07;;;3.80;;
5060;SDS011;2549;52.128;21.068;2022-09-03T02:10:27;5.40;;;3.47;;
5060;SDS011;2549;52.128;21.068;2022-09-03T02:15:42;9.17;;;3.40;;
5060;SDS011;2549;52.128;21.068;2022-09-03T02:18:18;10.43;;;3.10;;
5060;SDS011;2549;52.128;21.068;2022-09-03T02:20:48;8.00;;;3.17;;
5060;SDS011;2549;52.128;21.068;2022-09-03T02:23:17;5.30;;;3.30;;
5060;SDS011;2549;52.128;21.068;2022-09-03T02:25:56;10.73;;;3.50;;
5060;SDS011;2549;52.128;21.068;2022-09-03T02:28:25;4.27;;;3.27;;
5060;SDS011;2549;52.128;21.068;2022-09-03T02:30:54;6.73;;;2.87;;
5060;SDS011;2549;52.128;21.068;2022-09-03T02:33:22;9.10;;;4.07;;
5060;SDS011;2549;52.128;21.068;2022-09-03T02:35:50;4.00;;;3.27;;
5060;SDS011;2549;52.128;21.068;2022-09-03T02:38:19;5.87;;;3.53;;
5060;SDS011;2549;52.128;21.068;2022-09-03T02:40:51;3.83;;;3.07;;
5060;SDS011;2549;52.128;21.068;2022-09-03T02:43:39;7.60;;;3.03;;
5060;SDS011;2549;52.128;21.068;2022-09-03T02:46:21;8.33;;;3.50;;
5060;SDS011;2549;52.128;21.068;2022-09-03T02:48:50;3.10;;;2.70;;
5060;SDS011;2549;52.128;21.068;2022-09-03T02:51:18;13.93;;;3.40;;
5060;SDS011;2549;52.128;21.068;2022-09-03T02:53:45;6.53;;;3.53;;
5060;SDS011;2549;52.128;21.068;2022-09-03T02:56:12;7.37;;;3.07;;
5060;SDS011;2549;52.128;21.068;2022-09-03T02:58:39;5.63;;;3.07;;
5060;SDS011;2549;52.128;21.068;2022-09-03T03:01:06;15.50;;;3.00;;
5060;SDS011;2549;52.128;21.068;2022-09-03T03:03:33;6.93;;;3.67;;
5060;SDS011;2549;52.128;21.068;2022-09-03T03:06:01;7.97;;;3.47;;
5060;SDS011;2549;52.128;21.068;2022-09-03T03:08:30;12.60;;;3.80;;
5060;SDS011;2549;52.128;21.068;2022-09-03T03:10:59;6.87;;;2.93;;
5060;SDS011;2549;52.128;21.068;2022-09-03T03:13:27;4.10;;;2.97;;
5060;SDS011;2549;52.128;21.068;2022-09-03T03:15:56;5.43;;;2.87;;
5060;SDS011;2549;52.128;21.068;2022-09-03T03:18:24;3.00;;;2.70;;
5060;SDS011;2549;52.128;21.068;2022-09-03T03:20:51;6.50;;;2.40;;
5060;SDS011;2549;52.128;21.068;2022-09-03T03:23:19;3.97;;;3.03;;
5060;SDS011;2549;52.128;21.068;2022-09-03T03:25:46;5.60;;;3.60;;
5060;SDS011;2549;52.128;21.068;2022-09-03T03:28:13;6.03;;;3.00;;
5060;SDS011;2549;52.128;21.068;2022-09-03T03:30:40;5.27;;;3.30;;
5060;SDS011;2549;52.128;21.068;2022-09-03T03:33:08;4.87;;;3.10;;
5060;SDS011;2549;52.128;21.068;2022-09-03T03:35:35;4.40;;;3.13;;
5060;SDS011;2549;52.128;21.068;2022-09-03T03:38:03;8.80;;;3.10;;
5060;SDS011;2549;52.128;21.068;2022-09-03T03:40:30;3.57;;;2.93;;
5060;SDS011;2549;52.128;21.068;2022-09-03T03:42:57;12.03;;;3.23;;
5060;SDS011;2549;52.128;21.068;2022-09-03T03:45:24;4.93;;;2.73;;
5060;SDS011;2549;52.128;21.068;2022-09-03T03:47:55;5.20;;;3.13;;
5060;SDS011;2549;52.128;21.068;2022-09-03T03:50:24;4.67;;;3.10;;
5060;SDS011;2549;52.128;21.068;2022-09-03T03:52:51;9.10;;;2.77;;
5060;SDS011;2549;52.128;21.068;2022-09-03T03:55:18;3.20;;;2.90;;
5060;SDS011;2549;52.128;21.068;2022-09-03T03:57:45;4.70;;;3.00;;
5060;SDS011;2549;52.128;21.068;2022-09-03T04:00:12;5.93;;;3.40;;
5060;SDS011;2549;52.128;21.068;2022-09-03T04:02:40;7.50;;;3.17;;
5060;SDS011;2549;52.128;21.068;2022-09-03T04:05:07;5.40;;;3.27;;
5060;SDS011;2549;52.128;21.068;2022-09-03T04:07:34;4.00;;;2.80;;
5060;SDS011;2549;52.128;21.068;2022-09-03T04:10:01;6.17;;;2.63;;
5060;SDS011;2549;52.128;21.068;2022-09-03T04:12:29;5.50;;;2.67;;
5060;SDS011;2549;52.128;21.068;2022-09-03T04:14:55;3.90;;;2.77;;
5060;SDS011;2549;52.128;21.068;2022-09-03T04:17:22;6.63;;;2.93;;
5060;SDS011;2549;52.128;21.068;2022-09-03T04:19:50;5.23;;;2.40;;
5060;SDS011;2549;52.128;21.068;2022-09-03T04:22:17;10.80;;;3.00;;
5060;SDS011;2549;52.128;21.068;2022-09-03T04:24:46;11.30;;;3.60;;
5060;SDS011;2549;52.128;21.068;2022-09-03T04:27:13;5.30;;;2.57;;
5060;SDS011;2549;52.128;21.068;2022-09-03T04:29:39;3.10;;;2.40;;
5060;SDS011;2549;52.128;21.068;2022-09-03T04:32:06;8.83;;;3.00;;
5060;SDS011;2549;52.128;21.068;2022-09-03T04:34:52;7.70;;;2.80;;
5060;SDS011;2549;52.128;21.068;2022-09-03T04:37:19;5.20;;;2.77;;
5060;SDS011;2549;52.128;21.068;2022-09-03T04:39:46;6.47;;;2.37;;
5060;SDS011;2549;52.128;21.068;2022-09-03T04:42:13;4.73;;;3.27;;
5060;SDS011;2549;52.128;21.068;2022-09-03T04:44:40;7.80;;;2.50;;
5060;SDS011;2549;52.128;21.068;2022-09-03T04:47:07;4.60;;;3.13;;
5060;SDS011;2549;52.128;21.068;2022-09-03T04:49:34;3.10;;;2.00;;
5060;SDS011;2549;52.128;21.068;2022-09-03T04:52:01;5.50;;;2.83;;
5060;SDS011;2549;52.128;21.068;2022-09-03T04:54:29;2.90;;;2.50;;
5060;SDS011;2549;52.128;21.068;2022-09-03T04:56:56;4.07;;;2.97;;
5060;SDS011;2549;52.128;21.068;2022-09-03T04:59:23;7.10;;;2.63;;
5060;SDS011;2549;52.128;21.068;2022-09-03T05:01:50;7.97;;;4.13;;
5060;SDS011;2549;52.128;21.068;2022-09-03T05:04:22;3.60;;;2.13;;
5060;SDS011;2549;52.128;21.068;2022-09-03T05:06:49;6.27;;;2.60;;
5060;SDS011;2549;52.128;21.068;2022-09-03T05:09:15;2.93;;;2.37;;
5060;SDS011;2549;52.128;21.068;2022-09-03T05:11:42;3.60;;;2.27;;
5060;SDS011;2549;52.128;21.068;2022-09-03T05:14:10;2.87;;;2.17;;
5060;SDS011;2549;52.128;21.068;2022-09-03T05:16:37;7.30;;;2.33;;
5060;SDS011;2549;52.128;21.068;2022-09-03T05:19:05;2.70;;;2.10;;
5060;SDS011;2549;52.128;21.068;2022-09-03T05:21:33;3.67;;;2.70;;
5060;SDS011;2549;52.128;21.068;2022-09-03T05:24:03;8.83;;;2.33;;
5060;SDS011;2549;52.128;21.068;2022-09-03T05:26:31;4.90;;;2.43;;
5060;SDS011;2549;52.128;21.068;2022-09-03T05:29:02;3.30;;;2.67;;
5060;SDS011;2549;52.128;21.068;2022-09-03T05:31:35;4.70;;;2.80;;
5060;SDS011;2549;52.128;21.068;2022-09-03T05:34:05;4.30;;;2.63;;
5060;SDS011;2549;52.128;21.068;2022-09-03T05:36:33;3.60;;;1.80;;
5060;SDS011;2549;52.128;21.068;2022-09-03T05:39:02;4.00;;;2.93;;
5060;SDS011;2549;52.128;21.068;2022-09-03T05:41:30;4.30;;;2.10;;
5060;SDS011;2549;52.128;21.068;2022-09-03T05:43:59;3.30;;;2.50;;
5060;SDS011;2549;52.128;21.068;2022-09-03T05:46:28;4.50;;;3.00;;
5060;SDS011;2549;52.128;21.068;2022-09-03T05:49:02;9.23;;;2.13;;
5060;SDS011;2549;52.128;21.068;2022-09-03T05:51:32;2.40;;;2.20;;
5060;SDS011;2549;52.128;21.068;2022-09-03T05:54:00;3.90;;;2.00;;
5060;SDS011;2549;52.128;21.068;2022-09-03T05:56:29;2.50;;;1.90;;
5060;SDS011;2549;52.128;21.068;2022-09-03T05:58:58;2.80;;;2.20;;
5060;SDS011;2549;52.128;21.068;2022-09-03T06:01:31;2.13;;;1.80;;
5060;SDS011;2549;52.128;21.068;2022-09-03T06:04:04;6.50;;;2.10;;
5060;SDS011;2549;52.128;21.068;2022-09-03T06:06:33;4.43;;;1.97;;
5060;SDS011;2549;52.128;21.068;2022-09-03T06:09:06;5.27;;;1.70;;
5060;SDS011;2549;52.128;21.068;2022-09-03T06:11:36;5.90;;;2.80;;
5060;SDS011;2549;52.128;21.068;2022-09-03T06:14:06;4.90;;;3.80;;
5060;SDS011;2549;52.128;21.068;2022-09-03T06:16:35;3.37;;;2.53;;
5060;SDS011;2549;52.128;21.068;2022-09-03T06:19:07;3.93;;;2.37;;
5060;SDS011;2549;52.128;21.068;2022-09-03T06:21:36;4.07;;;2.90;;
5060;SDS011;2549;52.128;21.068;2022-09-03T06:24:08;7.63;;;2.80;;
5060;SDS011;2549;52.128;21.068;2022-09-03T06:26:40;4.57;;;1.80;;
5060;SDS011;2549;52.128;21.068;2022-09-03T06:29:08;1.90;;;1.80;;
5060;SDS011;2549;52.128;21.068;2022-09-03T06:31:35;2.50;;;1.97;;
5060;SDS011;2549;52.128;21.068;2022-09-03T06:34:03;6.47;;;2.50;;
5060;SDS011;2549;52.128;21.068;2022-09-03T06:36:30;2.33;;;2.10;;
5060;SDS011;2549;52.128;21.068;2022-09-03T06:38:57;3.27;;;2.20;;
5060;SDS011;2549;52.128;21.068;2022-09-03T06:41:25;5.67;;;2.87;;
5060;SDS011;2549;52.128;21.068;2022-09-03T06:43:59;2.40;;;1.80;;
5060;SDS011;2549;52.128;21.068;2022-09-03T06:46:32;2.10;;;1.40;;
5060;SDS011;2549;52.128;21.068;2022-09-03T06:49:00;4.63;;;1.83;;
5060;SDS011;2549;52.128;21.068;2022-09-03T06:51:29;2.43;;;1.50;;
5060;SDS011;2549;52.128;21.068;2022-09-03T06:54:03;3.87;;;2.27;;
5060;SDS011;2549;52.128;21.068;2022-09-03T06:56:32;4.87;;;2.03;;
5060;SDS011;2549;52.128;21.068;2022-09-03T06:59:20;7.03;;;1.70;;
5060;SDS011;2549;52.128;21.068;2022-09-03T07:01:47;2.70;;;1.90;;
5060;SDS011;2549;52.128;21.068;2022-09-03T07:04:14;2.60;;;2.40;;
5060;SDS011;2549;52.128;21.068;2022-09-03T07:06:44;4.33;;;1.67;;
5060;SDS011;2549;52.128;21.068;2022-09-03T07:09:11;3.17;;;1.40;;
5060;SDS011;2549;52.128;21.068;2022-09-03T07:11:41;4.77;;;2.10;;
5060;SDS011;2549;52.128;21.068;2022-09-03T07:14:14;15.50;;;1.80;;
5060;SDS011;2549;52.128;21.068;2022-09-03T07:16:46;4.87;;;1.67;;
5060;SDS011;2549;52.128;21.068;2022-09-03T07:19:14;6.27;;;1.63;;
5060;SDS011;2549;52.128;21.068;2022-09-03T07:21:42;7.90;;;1.73;;
5060;SDS011;2549;52.128;21.068;2022-09-03T07:24:16;9.03;;;2.17;;
5060;SDS011;2549;52.128;21.068;2022-09-03T07:26:43;5.27;;;2.57;;
5060;SDS011;2549;52.128;21.068;2022-09-03T07:29:12;8.07;;;2.30;;
5060;SDS011;2549;52.128;21.068;2022-09-03T07:31:41;5.83;;;1.60;;
5060;SDS011;2549;52.128;21.068;2022-09-03T07:34:10;2.90;;;1.63;;
5060;SDS011;2549;52.128;21.068;2022-09-03T07:36:42;3.43;;;1.80;;
5060;SDS011;2549;52.128;21.068;2022-09-03T07:39:15;5.13;;;1.87;;
5060;SDS011;2549;52.128;21.068;2022-09-03T07:41:43;3.37;;;1.53;;
5060;SDS011;2549;52.128;21.068;2022-09-03T07:44:15;2.47;;;1.87;;
5060;SDS011;2549;52.128;21.068;2022-09-03T07:46:45;1.70;;;1.60;;
5060;SDS011;2549;52.128;21.068;2022-09-03T07:49:14;6.70;;;1.90;;
5060;SDS011;2549;52.128;21.068;2022-09-03T07:51:42;2.40;;;1.87;;
5060;SDS011;2549;52.128;21.068;2022-09-03T07:54:09;5.60;;;1.67;;
5060;SDS011;2549;52.128;21.068;2022-09-03T07:56:37;4.00;;;1.90;;
5060;SDS011;2549;52.128;21.068;2022-09-03T07:59:05;9.73;;;1.53;;
5060;SDS011;2549;52.128;21.068;2022-09-03T08:01:33;4.20;;;1.40;;
5060;SDS011;2549;52.128;21.068;2022-09-03T08:04:07;3.37;;;1.67;;
5060;SDS011;2549;52.128;21.068;2022-09-03T08:06:35;1.27;;;1.27;;
5060;SDS011;2549;52.128;21.068;2022-09-03T08:09:03;3.23;;;1.60;;
5060;SDS011;2549;52.128;21.068;2022-09-03T08:11:35;2.20;;;1.57;;
5060;SDS011;2549;52.128;21.068;2022-09-03T08:14:04;6.27;;;1.40;;
5060;SDS011;2549;52.128;21.068;2022-09-03T08:16:36;4.63;;;1.70;;
5060;SDS011;2549;52.128;21.068;2022-09-03T08:19:05;3.23;;;2.00;;
5060;SDS011;2549;52.128;21.068;2022-09-03T08:21:33;4.80;;;1.77;;
5060;SDS011;2549;52.128;21.068;2022-09-03T08:24:00;2.10;;;1.90;;
5060;SDS011;2549;52.128;21.068;2022-09-03T08:26:34;2.30;;;1.50;;
5060;SDS011;2549;52.128;21.068;2022-09-03T08:29:10;2.90;;;1.40;;
5060;SDS011;2549;52.128;21.068;2022-09-03T08:31:37;5.00;;;1.30;;
5060;SDS011;2549;52.128;21.068;2022-09-03T08:34:04;1.10;;;1.00;;
5060;SDS011;2549;52.128;21.068;2022-09-03T08:36:33;4.63;;;1.60;;
5060;SDS011;2549;52.128;21.068;2022-09-03T08:39:03;1.60;;;1.50;;
5060;SDS011;2549;52.128;21.068;2022-09-03T08:49:22;3.67;;;1.70;;
5060;SDS011;2549;52.128;21.068;2022-09-03T08:52:00;0.90;;;0.90;;
5060;SDS011;2549;52.128;21.068;2022-09-03T08:54:30;1.50;;;1.40;;
5060;SDS011;2549;52.128;21.068;2022-09-03T08:56:59;11.20;;;1.53;;
5060;SDS011;2549;52.128;21.068;2022-09-03T08:59:29;1.53;;;1.17;;
5060;SDS011;2549;52.128;21.068;2022-09-03T09:04:58;1.10;;;1.10;;
5060;SDS011;2549;52.128;21.068;2022-09-03T09:07:37;3.93;;;1.43;;
5060;SDS011;2549;52.128;21.068;2022-09-03T09:10:36;2.60;;;1.10;;
5060;SDS011;2549;52.128;21.068;2022-09-03T09:18:41;2.30;;;0.93;;
5060;SDS011;2549;52.128;21.068;2022-09-03T09:21:27;1.40;;;1.30;;
5060;SDS011;2549;52.128;21.068;2022-09-03T09:24:03;1.33;;;1.10;;
5060;SDS011;2549;52.128;21.068;2022-09-03T09:26:39;1.60;;;1.20;;
5060;SDS011;2549;52.128;21.068;2022-09-03T09:29:07;3.23;;;1.20;;
5060;SDS011;2549;52.128;21.068;2022-09-03T09:31:38;1.00;;;0.90;;
5060;SDS011;2549;52.128;21.068;2022-09-03T09:34:10;0.80;;;0.80;;
5060;SDS011;2549;52.128;21.068;2022-09-03T09:36:55;2.20;;;1.00;;
5060;SDS011;2549;52.128;21.068;2022-09-03T09:39:22;1.80;;;1.10;;
5060;SDS011;2549;52.128;21.068;2022-09-03T09:42:06;1.43;;;1.33;;
5060;SDS011;2549;52.128;21.068;2022-09-03T09:44:37;3.03;;;1.53;;
5060;SDS011;2549;52.128;21.068;2022-09-03T09:47:12;1.40;;;1.00;;
5060;SDS011;2549;52.128;21.068;2022-09-03T09:49:53;2.73;;;1.27;;
5060;SDS011;2549;52.128;21.068;2022-09-03T09:52:22;1.17;;;1.00;;
5060;SDS011;2549;52.128;21.068;2022-09-03T09:54:52;1.13;;;1.03;;
5060;SDS011;2549;52.128;21.068;2022-09-03T09:57:30;0.80;;;0.80;;
5060;SDS011;2549;52.128;21.068;2022-09-03T10:02:50;1.70;;;1.03;;
5060;SDS011;2549;52.128;21.068;2022-09-03T10:05:31;3.40;;;0.97;;
5060;SDS011;2549;52.128;21.068;2022-09-03T10:08:05;2.83;;;0.83;;
5060;SDS011;2549;52.128;21.068;2022-09-03T10:10:45;1.23;;;0.90;;
5060;SDS011;2549;52.128;21.068;2022-09-03T10:21:38;3.90;;;0.90;;
5060;SDS011;2549;52.128;21.068;2022-09-03T10:23:56;1.13;;;0.93;;
5060;SDS011;2549;52.128;21.068;2022-09-03T10:26:30;0.90;;;0.90;;
5060;SDS011;2549;52.128;21.068;2022-09-03T10:28:59;2.03;;;1.37;;
5060;SDS011;2549;52.128;21.068;2022-09-03T10:31:47;2.30;;;1.00;;
5060;SDS011;2549;52.128;21.068;2022-09-03T10:40:39;1.10;;;1.00;;
5060;SDS011;2549;52.128;21.068;2022-09-03T10:43:17;0.77;;;0.77;;
5060;SDS011;2549;52.128;21.068;2022-09-03T10:46:00;2.77;;;1.13;;
5060;SDS011;2549;52.128;21.068;2022-09-03T10:48:47;1.93;;;0.80;;
5060;SDS011;2549;52.128;21.068;2022-09-03T10:51:51;0.80;;;0.80;;
5060;SDS011;2549;52.128;21.068;2022-09-03T10:57:21;1.33;;;1.23;;
5060;SDS011;2549;52.128;21.068;2022-09-03T11:05:22;1.00;;;1.00;;
5060;SDS011;2549;52.128;21.068;2022-09-03T11:08:12;2.67;;;0.97;;
5060;SDS011;2549;52.128;21.068;2022-09-03T11:10:53;6.17;;;1.10;;
5060;SDS011;2549;52.128;21.068;2022-09-03T11:13:26;1.43;;;1.20;;
5060;SDS011;2549;52.128;21.068;2022-09-03T11:16:02;2.30;;;1.30;;
5060;SDS011;2549;52.128;21.068;2022-09-03T11:18:42;6.00;;;1.77;;
5060;SDS011;2549;52.128;21.068;2022-09-03T11:21:14;1.93;;;0.87;;
5060;SDS011;2549;52.128;21.068;2022-09-03T11:23:45;1.00;;;0.90;;
5060;SDS011;2549;52.128;21.068;2022-09-03T11:26:21;0.80;;;0.80;;
5060;SDS011;2549;52.128;21.068;2022-09-03T11:28:59;1.90;;;1.00;;
5060;SDS011;2549;52.128;21.068;2022-09-03T11:37:31;3.70;;;0.90;;
5060;SDS011;2549;52.128;21.068;2022-09-03T11:39:56;3.23;;;0.90;;
5060;SDS011;2549;52.128;21.068;2022-09-03T11:42:39;4.53;;;0.90;;
5060;SDS011;2549;52.128;21.068;2022-09-03T11:47:53;1.00;;;0.87;;
5060;SDS011;2549;52.128;21.068;2022-09-03T11:50:24;1.40;;;0.93;;
5060;SDS011;2549;52.128;21.068;2022-09-03T11:53:39;1.20;;;0.80;;
5060;SDS011;2549;52.128;21.068;2022-09-03T11:55:53;4.63;;;1.40;;
5060;SDS011;2549;52.128;21.068;2022-09-03T11:58:41;2.60;;;1.07;;
5060;SDS011;2549;52.128;21.068;2022-09-03T12:01:10;1.07;;;0.80;;
5060;SDS011;2549;52.128;21.068;2022-09-03T12:03:48;1.00;;;0.90;;
5060;SDS011;2549;52.128;21.068;2022-09-03T12:06:30;2.50;;;0.80;;
5060;SDS011;2549;52.128;21.068;2022-09-03T12:23:28;4.33;;;1.40;;
5060;SDS011;2549;52.128;21.068;2022-09-03T12:26:15;0.80;;;0.80;;
5060;SDS011;2549;52.128;21.068;2022-09-03T12:28:52;4.33;;;1.50;;
5060;SDS011;2549;52.128;21.068;2022-09-03T12:31:26;1.77;;;1.10;;
5060;SDS011;2549;52.128;21.068;2022-09-03T12:33:59;1.07;;;1.07;;
5060;SDS011;2549;52.128;21.068;2022-09-03T12:36:39;0.90;;;0.90;;
5060;SDS011;2549;52.128;21.068;2022-09-03T12:39:08;1.17;;;1.00;;
5060;SDS011;2549;52.128;21.068;2022-09-03T12:44:27;2.03;;;0.90;;
5060;SDS011;2549;52.128;21.068;2022-09-03T12:49:56;0.90;;;0.90;;
5060;SDS011;2549;52.128;21.068;2022-09-03T12:52:32;6.23;;;2.70;;
5060;SDS011;2549;52.128;21.068;2022-09-03T12:57:46;4.73;;;1.13;;
5060;SDS011;2549;52.128;21.068;2022-09-03T13:00:41;1.27;;;1.17;;
5060;SDS011;2549;52.128;21.068;2022-09-03T13:06:20;1.30;;;1.00;;
5060;SDS011;2549;52.128;21.068;2022-09-03T13:08:56;6.80;;;1.90;;
5060;SDS011;2549;52.128;21.068;2022-09-03T13:11:32;1.57;;;1.00;;
5060;SDS011;2549;52.128;21.068;2022-09-03T13:14:04;0.93;;;0.70;;
5060;SDS011;2549;52.128;21.068;2022-09-03T13:16:45;3.13;;;1.00;;
5060;SDS011;2549;52.128;21.068;2022-09-03T13:24:55;11.00;;;0.90;;
5060;SDS011;2549;52.128;21.068;2022-09-03T13:30:28;2.70;;;1.20;;
5060;SDS011;2549;52.128;21.068;2022-09-03T13:33:15;6.17;;;0.93;;
5060;SDS011;2549;52.128;21.068;2022-09-03T13:35:46;10.37;;;1.07;;
5060;SDS011;2549;52.128;21.068;2022-09-03T13:41:11;1.30;;;1.20;;
5060;SDS011;2549;52.128;21.068;2022-09-03T13:43:47;1.03;;;0.70;;
5060;SDS011;2549;52.128;21.068;2022-09-03T13:46:32;7.00;;;1.07;;
5060;SDS011;2549;52.128;21.068;2022-09-03T13:49:33;1.33;;;1.00;;
5060;SDS011;2549;52.128;21.068;2022-09-03T13:55:44;1.00;;;0.90;;
5060;SDS011;2549;52.128;21.068;2022-09-03T14:01:07;1.67;;;1.57;;
5060;SDS011;2549;52.128;21.068;2022-09-03T14:03:48;0.70;;;0.70;;
5060;SDS011;2549;52.128;21.068;2022-09-03T14:12:19;1.13;;;1.03;;
5060;SDS011;2549;52.128;21.068;2022-09-03T14:15:02;1.03;;;0.90;;
5060;SDS011;2549;52.128;21.068;2022-09-03T14:17:40;1.00;;;1.00;;
5060;SDS011;2549;52.128;21.068;2022-09-03T14:20:47;0.80;;;0.80;;
5060;SDS011;2549;52.128;21.068;2022-09-03T14:26:13;2.70;;;0.80;;
5060;SDS011;2549;52.128;21.068;2022-09-03T14:34:12;2.30;;;1.00;;
5060;SDS011;2549;52.128;21.068;2022-09-03T14:42:12;1.63;;;1.13;;
5060;SDS011;2549;52.128;21.068;2022-09-03T14:55:35;1.37;;;1.23;;
5060;SDS011;2549;52.128;21.068;2022-09-03T14:58:32;9.10;;;1.00;;
5060;SDS011;2549;52.128;21.068;2022-09-03T15:07:32;3.30;;;1.30;;
5060;SDS011;2549;52.128;21.068;2022-09-03T15:12:50;1.57;;;0.97;;
5060;SDS011;2549;52.128;21.068;2022-09-03T15:15:28;3.23;;;1.00;;
5060;SDS011;2549;52.128;21.068;2022-09-03T15:18:14;2.70;;;1.00;;
5060;SDS011;2549;52.128;21.068;2022-09-03T15:21:04;1.40;;;1.27;;
5060;SDS011;2549;52.128;21.068;2022-09-03T15:29:18;2.70;;;1.30;;
5060;SDS011;2549;52.128;21.068;2022-09-03T15:35:06;1.20;;;1.10;;
5060;SDS011;2549;52.128;21.068;2022-09-03T15:37:36;1.30;;;1.13;;
5060;SDS011;2549;52.128;21.068;2022-09-03T15:40:31;3.77;;;1.13;;
5060;SDS011;2549;52.128;21.068;2022-09-03T15:43:06;6.70;;;1.10;;
5060;SDS011;2549;52.128;21.068;2022-09-03T15:51:58;3.13;;;1.20;;
5060;SDS011;2549;52.128;21.068;2022-09-03T15:54:42;2.20;;;1.73;;
5060;SDS011;2549;52.128;21.068;2022-09-03T15:57:19;5.40;;;1.30;;
5060;SDS011;2549;52.128;21.068;2022-09-03T15:59:57;1.60;;;1.50;;
5060;SDS011;2549;52.128;21.068;2022-09-03T16:02:33;1.40;;;1.30;;
5060;SDS011;2549;52.128;21.068;2022-09-03T16:05:22;4.30;;;2.30;;
5060;SDS011;2549;52.128;21.068;2022-09-03T16:08:06;5.80;;;1.60;;
5060;SDS011;2549;52.128;21.068;2022-09-03T16:10:56;4.50;;;1.53;;
5060;SDS011;2549;52.128;21.068;2022-09-03T16:16:03;1.50;;;1.40;;
5060;SDS011;2549;52.128;21.068;2022-09-03T16:18:38;4.23;;;2.27;;
5060;SDS011;2549;52.128;21.068;2022-09-03T16:27:21;12.70;;;1.70;;
5060;SDS011;2549;52.128;21.068;2022-09-03T16:44:22;4.07;;;1.80;;
5060;SDS011;2549;52.128;21.068;2022-09-03T16:47:23;7.40;;;2.20;;
5060;SDS011;2549;52.128;21.068;2022-09-03T16:50:13;3.47;;;2.30;;
5060;SDS011;2549;52.128;21.068;2022-09-03T16:58:01;1.87;;;1.77;;
5060;SDS011;2549;52.128;21.068;2022-09-03T17:14:11;2.97;;;1.60;;
5060;SDS011;2549;52.128;21.068;2022-09-03T17:25:07;1.40;;;1.30;;
5060;SDS011;2549;52.128;21.068;2022-09-03T17:30:57;4.27;;;1.83;;
5060;SDS011;2549;52.128;21.068;2022-09-03T17:33:45;2.63;;;1.90;;
5060;SDS011;2549;52.128;21.068;2022-09-03T17:36:40;4.63;;;1.50;;
5060;SDS011;2549;52.128;21.068;2022-09-03T17:39:55;3.57;;;1.60;;
5060;SDS011;2549;52.128;21.068;2022-09-03T17:42:39;4.37;;;1.70;;
5060;SDS011;2549;52.128;21.068;2022-09-03T17:45:25;8.60;;;1.90;;
5060;SDS011;2549;52.128;21.068;2022-09-03T17:50:52;4.83;;;1.87;;
5060;SDS011;2549;52.128;21.068;2022-09-03T17:59:07;2.10;;;1.90;;
5060;SDS011;2549;52.128;21.068;2022-09-03T18:01:51;3.60;;;1.77;;
5060;SDS011;2549;52.128;21.068;2022-09-03T18:04:37;9.10;;;2.10;;
5060;SDS011;2549;52.128;21.068;2022-09-03T18:07:28;6.83;;;2.13;;
5060;SDS011;2549;52.128;21.068;2022-09-03T18:18:35;1.80;;;1.60;;
5060;SDS011;2549;52.128;21.068;2022-09-03T18:21:10;3.43;;;2.37;;
5060;SDS011;2549;52.128;21.068;2022-09-03T18:27:13;4.47;;;1.83;;
5060;SDS011;2549;52.128;21.068;2022-09-03T18:30:18;5.80;;;1.87;;
5060;SDS011;2549;52.128;21.068;2022-09-03T18:33:04;4.53;;;1.97;;
5060;SDS011;2549;52.128;21.068;2022-09-03T18:35:49;3.90;;;1.97;;
5060;SDS011;2549;52.128;21.068;2022-09-03T18:38:36;2.97;;;1.67;;
5060;SDS011;2549;52.128;21.068;2022-09-03T18:41:27;13.90;;;2.53;;
5060;SDS011;2549;52.128;21.068;2022-09-03T19:02:41;9.70;;;2.43;;
5060;SDS011;2549;52.128;21.068;2022-09-03T19:21:15;4.00;;;2.20;;
5060;SDS011;2549;52.128;21.068;2022-09-03T19:24:10;6.60;;;1.80;;
5060;SDS011;2549;52.128;21.068;2022-09-03T19:27:03;3.83;;;2.20;;
5060;SDS011;2549;52.128;21.068;2022-09-03T19:30:26;5.77;;;2.57;;
5060;SDS011;2549;52.128;21.068;2022-09-03T19:36:19;6.30;;;2.70;;
5060;SDS011;2549;52.128;21.068;2022-09-03T19:42:46;3.33;;;2.60;;
5060;SDS011;2549;52.128;21.068;2022-09-03T19:54:58;13.80;;;3.00;;
5060;SDS011;2549;52.128;21.068;2022-09-03T19:57:46;8.93;;;4.40;;
5060;SDS011;2549;52.128;21.068;2022-09-03T20:00:56;8.23;;;2.90;;
5060;SDS011;2549;52.128;21.068;2022-09-03T20:03:42;5.90;;;3.00;;
5060;SDS011;2549;52.128;21.068;2022-09-03T20:06:28;4.27;;;2.90;;
5060;SDS011;2549;52.128;21.068;2022-09-03T20:09:15;6.67;;;2.83;;
5060;SDS011;2549;52.128;21.068;2022-09-03T20:12:06;4.77;;;3.17;;
5060;SDS011;2549;52.128;21.068;2022-09-03T20:14:35;5.00;;;2.87;;
5060;SDS011;2549;52.128;21.068;2022-09-03T20:17:12;5.60;;;3.63;;
5060;SDS011;2549;52.128;21.068;2022-09-03T20:24:59;7.70;;;3.60;;
5060;SDS011;2549;52.128;21.068;2022-09-03T20:30:51;5.30;;;3.80;;
5060;SDS011;2549;52.128;21.068;2022-09-03T20:52:38;5.53;;;3.10;;
5060;SDS011;2549;52.128;21.068;2022-09-03T20:55:21;3.80;;;3.50;;
5060;SDS011;2549;52.128;21.068;2022-09-03T21:03:15;7.67;;;5.00;;
5060;SDS011;2549;52.128;21.068;2022-09-03T21:08:53;11.43;;;5.50;;
5060;SDS011;2549;52.128;21.068;2022-09-03T21:11:39;11.07;;;5.50;;
5060;SDS011;2549;52.128;21.068;2022-09-03T21:25:11;10.70;;;5.73;;
5060;SDS011;2549;52.128;21.068;2022-09-03T21:27:47;8.60;;;5.07;;
5060;SDS011;2549;52.128;21.068;2022-09-03T21:30:18;13.50;;;5.80;;
5060;SDS011;2549;52.128;21.068;2022-09-03T21:32:54;8.67;;;4.60;;
5060;SDS011;2549;52.128;21.068;2022-09-03T21:35:49;7.73;;;4.83;;
5060;SDS011;2549;52.128;21.068;2022-09-03T21:38:50;6.80;;;4.63;;
5060;SDS011;2549;52.128;21.068;2022-09-03T21:41:38;7.60;;;6.20;;
5060;SDS011;2549;52.128;21.068;2022-09-03T21:44:12;8.67;;;4.27;;
5060;SDS011;2549;52.128;21.068;2022-09-03T21:47:04;6.80;;;4.00;;
5060;SDS011;2549;52.128;21.068;2022-09-03T21:49:41;8.63;;;4.67;;
5060;SDS011;2549;52.128;21.068;2022-09-03T21:52:45;7.33;;;4.00;;
5060;SDS011;2549;52.128;21.068;2022-09-03T21:55:24;6.23;;;4.20;;
5060;SDS011;2549;52.128;21.068;2022-09-03T21:58:25;12.00;;;5.37;;
5060;SDS011;2549;52.128;21.068;2022-09-03T22:01:13;11.20;;;5.80;;
5060;SDS011;2549;52.128;21.068;2022-09-03T22:03:46;9.17;;;5.73;;
5060;SDS011;2549;52.128;21.068;2022-09-03T22:06:14;9.10;;;5.73;;